sensor_id;sensor_type;location;lat;lon;timestamp;P1;durP1;ratioP1;P2;durP2;ratioP2
37425;SDS011;23285;50.180;7.036;2023-04-07T00:01:59;23.47;;;15.50;;
37425;SDS011;23285;50.180;7.036;2023-04-07T00:04:46;16.03;;;14.10;;
37425;SDS011;23285;50.180;7.036;2023-04-07T00:07:32;18.87;;;15.33;;
37425;SDS011;23285;50.180;7.036;2023-04-07T00:10:19;19.37;;;16.07;;
37425;SDS011;23285;50.180;7.036;2023-04-07T00:13:05;18.37;;;16.10;;
37425;SDS011;23285;50.180;7.036;2023-04-07T00:15:51;16.73;;;14.53;;
37425;SDS011;23285;50.180;7.036;2023-04-07T00:18:39;17.73;;;14.50;;
37425;SDS011;23285;50.180;7.036;2023-04-07T00:21:25;14.83;;;12.90;;
37425;SDS011;23285;50.180;7.036;2023-04-07T00:24:12;19.70;;;17.00;;
37425;SDS011;23285;50.180;7.036;2023-04-07T00:26:58;18.10;;;14.50;;
37425;SDS011;23285;50.180;7.036;2023-04-07T00:29:45;17.97;;;14.97;;
37425;SDS011;23285;50.180;7.036;2023-04-07T00:32:32;17.37;;;14.53;;
37425;SDS011;23285;50.180;7.036;2023-04-07T00:35:19;19.60;;;14.37;;
37425;SDS011;23285;50.180;7.036;2023-04-07T00:38:06;15.87;;;14.27;;
37425;SDS011;23285;50.180;7.036;2023-04-07T00:40:56;23.57;;;13.83;;
37425;SDS011;23285;50.180;7.036;2023-04-07T00:43:42;16.27;;;14.57;;
37425;SDS011;23285;50.180;7.036;2023-04-07T00:46:30;17.27;;;13.97;;
37425;SDS011;23285;50.180;7.036;2023-04-07T00:49:16;17.80;;;15.40;;
37425;SDS011;23285;50.180;7.036;2023-04-07T00:52:04;22.17;;;19.13;;
37425;SDS011;23285;50.180;7.036;2023-04-07T00:54:52;22.13;;;18.07;;
37425;SDS011;23285;50.180;7.036;2023-04-07T00:57:39;19.53;;;16.30;;
37425;SDS011;23285;50.180;7.036;2023-04-07T01:00:26;18.30;;;15.23;;
37425;SDS011;23285;50.180;7.036;2023-04-07T01:03:15;17.70;;;14.70;;
37425;SDS011;23285;50.180;7.036;2023-04-07T01:06:04;16.57;;;13.73;;
37425;SDS011;23285;50.180;7.036;2023-04-07T01:08:56;17.23;;;13.43;;
37425;SDS011;23285;50.180;7.036;2023-04-07T01:11:43;15.83;;;14.03;;
37425;SDS011;23285;50.180;7.036;2023-04-07T01:14:39;27.77;;;22.70;;
37425;SDS011;23285;50.180;7.036;2023-04-07T01:17:54;15.87;;;14.17;;
37425;SDS011;23285;50.180;7.036;2023-04-07T01:20:44;18.53;;;15.97;;
37425;SDS011;23285;50.180;7.036;2023-04-07T01:23:46;25.63;;;19.87;;
37425;SDS011;23285;50.180;7.036;2023-04-07T01:26:47;19.40;;;17.30;;
37425;SDS011;23285;50.180;7.036;2023-04-07T01:29:36;20.73;;;17.27;;
37425;SDS011;23285;50.180;7.036;2023-04-07T01:32:25;23.50;;;19.50;;
37425;SDS011;23285;50.180;7.036;2023-04-07T01:35:12;21.63;;;16.77;;
37425;SDS011;23285;50.180;7.036;2023-04-07T01:38:00;30.90;;;23.10;;
37425;SDS011;23285;50.180;7.036;2023-04-07T01:40:48;25.33;;;19.47;;
37425;SDS011;23285;50.180;7.036;2023-04-07T01:43:35;18.67;;;15.27;;
37425;SDS011;23285;50.180;7.036;2023-04-07T01:46:24;18.30;;;16.03;;
37425;SDS011;23285;50.180;7.036;2023-04-07T01:49:10;15.37;;;13.77;;
37425;SDS011;23285;50.180;7.036;2023-04-07T01:51:57;23.77;;;18.37;;
37425;SDS011;23285;50.180;7.036;2023-04-07T01:54:44;17.57;;;15.27;;
37425;SDS011;23285;50.180;7.036;2023-04-07T01:57:31;17.83;;;15.83;;
37425;SDS011;23285;50.180;7.036;2023-04-07T02:00:23;24.00;;;18.10;;
37425;SDS011;23285;50.180;7.036;2023-04-07T02:03:14;19.03;;;16.63;;
37425;SDS011;23285;50.180;7.036;2023-04-07T02:06:05;18.43;;;15.90;;
37425;SDS011;23285;50.180;7.036;2023-04-07T02:08:54;16.60;;;14.77;;
37425;SDS011;23285;50.180;7.036;2023-04-07T02:11:42;17.53;;;15.37;;
37425;SDS011;23285;50.180;7.036;2023-04-07T02:14:29;14.67;;;13.17;;
37425;SDS011;23285;50.180;7.036;2023-04-07T02:17:21;16.33;;;14.63;;
37425;SDS011;23285;50.180;7.036;2023-04-07T02:20:10;15.17;;;13.67;;
37425;SDS011;23285;50.180;7.036;2023-04-07T02:22:58;18.57;;;15.70;;
37425;SDS011;23285;50.180;7.036;2023-04-07T02:25:44;24.00;;;19.30;;
37425;SDS011;23285;50.180;7.036;2023-04-07T02:28:31;29.30;;;18.93;;
37425;SDS011;23285;50.180;7.036;2023-04-07T02:31:18;16.53;;;13.20;;
37425;SDS011;23285;50.180;7.036;2023-04-07T02:34:04;18.30;;;14.80;;
37425;SDS011;23285;50.180;7.036;2023-04-07T02:36:52;14.20;;;12.00;;
37425;SDS011;23285;50.180;7.036;2023-04-07T02:39:38;15.27;;;13.67;;
37425;SDS011;23285;50.180;7.036;2023-04-07T02:42:25;11.63;;;10.40;;
37425;SDS011;23285;50.180;7.036;2023-04-07T02:45:13;14.67;;;13.13;;
37425;SDS011;23285;50.180;7.036;2023-04-07T02:48:00;12.27;;;11.07;;
37425;SDS011;23285;50.180;7.036;2023-04-07T02:50:46;11.17;;;10.13;;
37425;SDS011;23285;50.180;7.036;2023-04-07T02:53:34;11.20;;;10.00;;
37425;SDS011;23285;50.180;7.036;2023-04-07T02:56:22;10.97;;;9.87;;
37425;SDS011;23285;50.180;7.036;2023-04-07T02:59:08;9.57;;;8.67;;
37425;SDS011;23285;50.180;7.036;2023-04-07T03:01:59;9.70;;;8.73;;
37425;SDS011;23285;50.180;7.036;2023-04-07T03:04:46;11.10;;;10.00;;
37425;SDS011;23285;50.180;7.036;2023-04-07T03:07:33;10.17;;;9.17;;
37425;SDS011;23285;50.180;7.036;2023-04-07T03:10:21;9.37;;;8.47;;
37425;SDS011;23285;50.180;7.036;2023-04-07T03:13:08;9.63;;;8.73;;
37425;SDS011;23285;50.180;7.036;2023-04-07T03:15:57;10.07;;;9.13;;
37425;SDS011;23285;50.180;7.036;2023-04-07T03:18:48;12.33;;;9.30;;
37425;SDS011;23285;50.180;7.036;2023-04-07T03:21:36;9.33;;;8.43;;
37425;SDS011;23285;50.180;7.036;2023-04-07T03:24:22;8.47;;;7.27;;
37425;SDS011;23285;50.180;7.036;2023-04-07T03:27:10;11.10;;;10.10;;
37425;SDS011;23285;50.180;7.036;2023-04-07T03:30:01;8.57;;;7.67;;
37425;SDS011;23285;50.180;7.036;2023-04-07T03:32:48;8.37;;;7.60;;
37425;SDS011;23285;50.180;7.036;2023-04-07T03:35:35;10.07;;;9.07;;
37425;SDS011;23285;50.180;7.036;2023-04-07T03:38:21;7.67;;;6.97;;
37425;SDS011;23285;50.180;7.036;2023-04-07T03:41:13;8.60;;;7.90;;
37425;SDS011;23285;50.180;7.036;2023-04-07T03:44:01;8.57;;;7.70;;
37425;SDS011;23285;50.180;7.036;2023-04-07T03:46:49;7.50;;;6.90;;
37425;SDS011;23285;50.180;7.036;2023-04-07T03:49:39;8.47;;;7.67;;
37425;SDS011;23285;50.180;7.036;2023-04-07T03:52:25;7.90;;;7.20;;
37425;SDS011;23285;50.180;7.036;2023-04-07T03:55:18;6.63;;;6.13;;
37425;SDS011;23285;50.180;7.036;2023-04-07T03:58:06;7.30;;;6.60;;
37425;SDS011;23285;50.180;7.036;2023-04-07T04:00:56;5.80;;;5.30;;
37425;SDS011;23285;50.180;7.036;2023-04-07T04:03:43;6.00;;;5.50;;
37425;SDS011;23285;50.180;7.036;2023-04-07T04:06:50;7.20;;;6.50;;
37425;SDS011;23285;50.180;7.036;2023-04-07T04:10:06;5.93;;;5.43;;
37425;SDS011;23285;50.180;7.036;2023-04-07T04:12:57;6.60;;;6.00;;
37425;SDS011;23285;50.180;7.036;2023-04-07T04:15:44;8.13;;;7.33;;
37425;SDS011;23285;50.180;7.036;2023-04-07T04:18:35;7.13;;;6.43;;
37425;SDS011;23285;50.180;7.036;2023-04-07T04:21:22;7.27;;;6.67;;
37425;SDS011;23285;50.180;7.036;2023-04-07T04:24:11;9.23;;;8.33;;
37425;SDS011;23285;50.180;7.036;2023-04-07T04:26:57;7.10;;;6.50;;
37425;SDS011;23285;50.180;7.036;2023-04-07T04:29:45;5.37;;;4.93;;
37425;SDS011;23285;50.180;7.036;2023-04-07T04:32:34;5.73;;;5.00;;
37425;SDS011;23285;50.180;7.036;2023-04-07T04:35:22;6.03;;;5.17;;
37425;SDS011;23285;50.180;7.036;2023-04-07T04:38:25;5.87;;;5.37;;
37425;SDS011;23285;50.180;7.036;2023-04-07T04:41:22;5.53;;;5.03;;
37425;SDS011;23285;50.180;7.036;2023-04-07T04:44:09;5.90;;;5.40;;
37425;SDS011;23285;50.180;7.036;2023-04-07T04:46:57;5.93;;;5.33;;
37425;SDS011;23285;50.180;7.036;2023-04-07T04:49:44;5.50;;;5.00;;
37425;SDS011;23285;50.180;7.036;2023-04-07T04:52:32;5.83;;;5.33;;
37425;SDS011;23285;50.180;7.036;2023-04-07T04:55:19;5.40;;;4.90;;
37425;SDS011;23285;50.180;7.036;2023-04-07T04:58:05;6.93;;;5.67;;
37425;SDS011;23285;50.180;7.036;2023-04-07T05:01:03;5.23;;;4.77;;
37425;SDS011;23285;50.180;7.036;2023-04-07T05:03:55;6.03;;;5.53;;
37425;SDS011;23285;50.180;7.036;2023-04-07T05:06:45;6.30;;;5.70;;
37425;SDS011;23285;50.180;7.036;2023-04-07T05:09:36;6.20;;;5.60;;
37425;SDS011;23285;50.180;7.036;2023-04-07T05:12:23;6.60;;;5.97;;
37425;SDS011;23285;50.180;7.036;2023-04-07T05:15:15;12.43;;;8.70;;
37425;SDS011;23285;50.180;7.036;2023-04-07T05:18:05;8.83;;;7.40;;
37425;SDS011;23285;50.180;7.036;2023-04-07T05:20:52;7.57;;;6.73;;
37425;SDS011;23285;50.180;7.036;2023-04-07T05:23:40;6.53;;;5.77;;
37425;SDS011;23285;50.180;7.036;2023-04-07T05:26:29;6.33;;;5.73;;
37425;SDS011;23285;50.180;7.036;2023-04-07T05:29:17;8.30;;;7.50;;
37425;SDS011;23285;50.180;7.036;2023-04-07T05:32:04;7.53;;;6.83;;
37425;SDS011;23285;50.180;7.036;2023-04-07T05:34:50;12.23;;;10.30;;
37425;SDS011;23285;50.180;7.036;2023-04-07T05:37:38;9.43;;;7.53;;
37425;SDS011;23285;50.180;7.036;2023-04-07T05:40:25;5.87;;;5.37;;
37425;SDS011;23285;50.180;7.036;2023-04-07T05:43:14;6.47;;;5.83;;
37425;SDS011;23285;50.180;7.036;2023-04-07T05:46:01;7.30;;;6.50;;
37425;SDS011;23285;50.180;7.036;2023-04-07T05:48:48;11.80;;;8.87;;
37425;SDS011;23285;50.180;7.036;2023-04-07T05:51:35;10.73;;;8.27;;
37425;SDS011;23285;50.180;7.036;2023-04-07T05:54:27;7.93;;;7.00;;
37425;SDS011;23285;50.180;7.036;2023-04-07T05:57:15;9.43;;;7.87;;
37425;SDS011;23285;50.180;7.036;2023-04-07T06:00:05;8.43;;;6.73;;
37425;SDS011;23285;50.180;7.036;2023-04-07T06:02:58;9.47;;;7.47;;
37425;SDS011;23285;50.180;7.036;2023-04-07T06:05:49;7.17;;;6.47;;
37425;SDS011;23285;50.180;7.036;2023-04-07T06:08:38;9.60;;;8.57;;
37425;SDS011;23285;50.180;7.036;2023-04-07T06:11:24;9.63;;;8.50;;
37425;SDS011;23285;50.180;7.036;2023-04-07T06:14:11;10.30;;;8.13;;
37425;SDS011;23285;50.180;7.036;2023-04-07T06:16:59;10.27;;;9.27;;
37425;SDS011;23285;50.180;7.036;2023-04-07T06:19:45;12.00;;;9.60;;
37425;SDS011;23285;50.180;7.036;2023-04-07T06:22:32;13.23;;;10.23;;
37425;SDS011;23285;50.180;7.036;2023-04-07T06:25:19;13.67;;;10.73;;
37425;SDS011;23285;50.180;7.036;2023-04-07T06:28:05;15.77;;;11.23;;
37425;SDS011;23285;50.180;7.036;2023-04-07T06:30:52;11.90;;;10.53;;
37425;SDS011;23285;50.180;7.036;2023-04-07T06:33:40;10.87;;;8.83;;
37425;SDS011;23285;50.180;7.036;2023-04-07T06:36:26;9.27;;;8.37;;
37425;SDS011;23285;50.180;7.036;2023-04-07T06:39:13;9.63;;;8.37;;
37425;SDS011;23285;50.180;7.036;2023-04-07T06:41:59;13.37;;;11.07;;
37425;SDS011;23285;50.180;7.036;2023-04-07T06:44:45;8.27;;;7.43;;
37425;SDS011;23285;50.180;7.036;2023-04-07T06:47:31;8.37;;;7.53;;
37425;SDS011;23285;50.180;7.036;2023-04-07T06:50:19;9.17;;;8.17;;
37425;SDS011;23285;50.180;7.036;2023-04-07T06:53:05;10.77;;;8.00;;
37425;SDS011;23285;50.180;7.036;2023-04-07T06:56:01;11.50;;;9.37;;
37425;SDS011;23285;50.180;7.036;2023-04-07T06:58:49;12.50;;;10.50;;
37425;SDS011;23285;50.180;7.036;2023-04-07T07:01:35;12.40;;;10.20;;
37425;SDS011;23285;50.180;7.036;2023-04-07T07:04:22;13.50;;;10.13;;
37425;SDS011;23285;50.180;7.036;2023-04-07T07:07:10;13.90;;;9.97;;
37425;SDS011;23285;50.180;7.036;2023-04-07T07:09:56;16.37;;;11.73;;
37425;SDS011;23285;50.180;7.036;2023-04-07T07:12:42;11.27;;;9.37;;
37425;SDS011;23285;50.180;7.036;2023-04-07T07:15:29;12.27;;;9.33;;
37425;SDS011;23285;50.180;7.036;2023-04-07T07:18:15;14.83;;;10.13;;
37425;SDS011;23285;50.180;7.036;2023-04-07T07:21:01;14.63;;;10.70;;
37425;SDS011;23285;50.180;7.036;2023-04-07T07:23:49;14.97;;;10.60;;
37425;SDS011;23285;50.180;7.036;2023-04-07T07:26:35;11.90;;;9.90;;
37425;SDS011;23285;50.180;7.036;2023-04-07T07:29:22;14.83;;;10.33;;
37425;SDS011;23285;50.180;7.036;2023-04-07T07:32:08;15.83;;;10.30;;
37425;SDS011;23285;50.180;7.036;2023-04-07T07:34:55;15.93;;;10.97;;
37425;SDS011;23285;50.180;7.036;2023-04-07T07:37:41;16.30;;;10.63;;
37425;SDS011;23285;50.180;7.036;2023-04-07T07:40:29;16.70;;;11.37;;
37425;SDS011;23285;50.180;7.036;2023-04-07T07:43:16;14.77;;;10.63;;
37425;SDS011;23285;50.180;7.036;2023-04-07T07:46:02;17.13;;;11.30;;
37425;SDS011;23285;50.180;7.036;2023-04-07T07:48:49;15.03;;;11.23;;
37425;SDS011;23285;50.180;7.036;2023-04-07T07:51:35;17.73;;;11.37;;
37425;SDS011;23285;50.180;7.036;2023-04-07T07:54:22;17.03;;;12.93;;
37425;SDS011;23285;50.180;7.036;2023-04-07T07:57:09;15.03;;;11.03;;
37425;SDS011;23285;50.180;7.036;2023-04-07T07:59:56;18.23;;;12.43;;
37425;SDS011;23285;50.180;7.036;2023-04-07T08:02:42;18.57;;;11.93;;
37425;SDS011;23285;50.180;7.036;2023-04-07T08:05:30;14.20;;;11.13;;
37425;SDS011;23285;50.180;7.036;2023-04-07T08:08:16;13.73;;;11.40;;
37425;SDS011;23285;50.180;7.036;2023-04-07T08:11:02;15.83;;;11.57;;
37425;SDS011;23285;50.180;7.036;2023-04-07T08:13:50;13.17;;;11.77;;
37425;SDS011;23285;50.180;7.036;2023-04-07T08:16:37;15.53;;;12.37;;
37425;SDS011;23285;50.180;7.036;2023-04-07T08:19:24;19.53;;;13.63;;
37425;SDS011;23285;50.180;7.036;2023-04-07T08:22:10;15.50;;;13.37;;
37425;SDS011;23285;50.180;7.036;2023-04-07T08:24:56;17.13;;;13.50;;
37425;SDS011;23285;50.180;7.036;2023-04-07T08:27:43;16.80;;;13.73;;
37425;SDS011;23285;50.180;7.036;2023-04-07T08:30:31;16.47;;;13.20;;
37425;SDS011;23285;50.180;7.036;2023-04-07T08:33:17;17.83;;;12.77;;
37425;SDS011;23285;50.180;7.036;2023-04-07T08:36:03;17.87;;;13.20;;
37425;SDS011;23285;50.180;7.036;2023-04-07T08:38:50;16.53;;;12.87;;
37425;SDS011;23285;50.180;7.036;2023-04-07T08:41:37;15.87;;;12.97;;
37425;SDS011;23285;50.180;7.036;2023-04-07T08:44:24;17.23;;;13.43;;
37425;SDS011;23285;50.180;7.036;2023-04-07T08:47:13;16.97;;;13.03;;
37425;SDS011;23285;50.180;7.036;2023-04-07T08:50:03;15.10;;;11.87;;
37425;SDS011;23285;50.180;7.036;2023-04-07T08:52:52;17.20;;;12.97;;
37425;SDS011;23285;50.180;7.036;2023-04-07T08:55:40;16.93;;;12.00;;
37425;SDS011;23285;50.180;7.036;2023-04-07T08:58:26;13.83;;;12.17;;
37425;SDS011;23285;50.180;7.036;2023-04-07T09:01:12;16.73;;;12.73;;
37425;SDS011;23285;50.180;7.036;2023-04-07T09:04:01;16.33;;;12.33;;
37425;SDS011;23285;50.180;7.036;2023-04-07T09:06:48;17.67;;;12.73;;
37425;SDS011;23285;50.180;7.036;2023-04-07T09:09:35;14.43;;;12.60;;
37425;SDS011;23285;50.180;7.036;2023-04-07T09:12:21;17.17;;;12.10;;
37425;SDS011;23285;50.180;7.036;2023-04-07T09:15:08;16.30;;;12.50;;
37425;SDS011;23285;50.180;7.036;2023-04-07T09:17:55;18.60;;;12.40;;
37425;SDS011;23285;50.180;7.036;2023-04-07T09:20:56;18.20;;;12.97;;
37425;SDS011;23285;50.180;7.036;2023-04-07T09:23:43;18.20;;;12.07;;
37425;SDS011;23285;50.180;7.036;2023-04-07T09:26:29;17.20;;;13.47;;
37425;SDS011;23285;50.180;7.036;2023-04-07T09:29:18;15.40;;;11.80;;
37425;SDS011;23285;50.180;7.036;2023-04-07T09:32:05;16.13;;;10.93;;
37425;SDS011;23285;50.180;7.036;2023-04-07T09:34:56;14.57;;;11.87;;
37425;SDS011;23285;50.180;7.036;2023-04-07T09:37:45;13.77;;;10.70;;
37425;SDS011;23285;50.180;7.036;2023-04-07T09:40:47;12.33;;;10.77;;
37425;SDS011;23285;50.180;7.036;2023-04-07T09:43:34;13.67;;;9.67;;
37425;SDS011;23285;50.180;7.036;2023-04-07T09:46:22;14.83;;;8.50;;
37425;SDS011;23285;50.180;7.036;2023-04-07T09:49:09;8.73;;;7.40;;
37425;SDS011;23285;50.180;7.036;2023-04-07T09:51:56;12.03;;;8.67;;
37425;SDS011;23285;50.180;7.036;2023-04-07T09:54:44;10.67;;;8.40;;
37425;SDS011;23285;50.180;7.036;2023-04-07T09:57:31;11.07;;;8.37;;
37425;SDS011;23285;50.180;7.036;2023-04-07T10:00:18;11.27;;;9.30;;
37425;SDS011;23285;50.180;7.036;2023-04-07T10:03:05;13.10;;;9.40;;
37425;SDS011;23285;50.180;7.036;2023-04-07T10:05:53;10.63;;;8.63;;
37425;SDS011;23285;50.180;7.036;2023-04-07T10:08:40;10.93;;;9.03;;
37425;SDS011;23285;50.180;7.036;2023-04-07T10:11:28;11.47;;;9.17;;
37425;SDS011;23285;50.180;7.036;2023-04-07T10:14:15;11.00;;;8.47;;
37425;SDS011;23285;50.180;7.036;2023-04-07T10:17:03;11.03;;;8.33;;
37425;SDS011;23285;50.180;7.036;2023-04-07T10:19:49;14.07;;;8.47;;
37425;SDS011;23285;50.180;7.036;2023-04-07T10:22:36;13.53;;;7.27;;
37425;SDS011;23285;50.180;7.036;2023-04-07T10:25:25;8.77;;;7.40;;
37425;SDS011;23285;50.180;7.036;2023-04-07T10:28:14;10.17;;;7.10;;
37425;SDS011;23285;50.180;7.036;2023-04-07T10:31:02;11.80;;;7.50;;
37425;SDS011;23285;50.180;7.036;2023-04-07T10:33:49;9.10;;;6.57;;
37425;SDS011;23285;50.180;7.036;2023-04-07T10:37:07;9.57;;;6.27;;
37425;SDS011;23285;50.180;7.036;2023-04-07T10:43:12;10.63;;;7.23;;
37425;SDS011;23285;50.180;7.036;2023-04-07T10:46:19;10.30;;;6.23;;
37425;SDS011;23285;50.180;7.036;2023-04-07T10:49:07;8.00;;;6.07;;
37425;SDS011;23285;50.180;7.036;2023-04-07T10:58:22;8.80;;;5.73;;
37425;SDS011;23285;50.180;7.036;2023-04-07T11:01:18;7.30;;;5.57;;
37425;SDS011;23285;50.180;7.036;2023-04-07T11:04:08;7.97;;;5.70;;
37425;SDS011;23285;50.180;7.036;2023-04-07T11:06:54;6.30;;;5.03;;
37425;SDS011;23285;50.180;7.036;2023-04-07T11:09:43;8.30;;;4.80;;
37425;SDS011;23285;50.180;7.036;2023-04-07T11:12:29;6.07;;;4.73;;
37425;SDS011;23285;50.180;7.036;2023-04-07T11:15:20;6.33;;;5.07;;
37425;SDS011;23285;50.180;7.036;2023-04-07T11:21:03;7.60;;;5.00;;
37425;SDS011;23285;50.180;7.036;2023-04-07T11:23:50;5.20;;;4.30;;
37425;SDS011;23285;50.180;7.036;2023-04-07T11:26:37;6.17;;;4.23;;
37425;SDS011;23285;50.180;7.036;2023-04-07T11:29:26;5.13;;;3.63;;
37425;SDS011;23285;50.180;7.036;2023-04-07T11:32:15;4.83;;;3.77;;
37425;SDS011;23285;50.180;7.036;2023-04-07T11:35:08;6.50;;;4.10;;
37425;SDS011;23285;50.180;7.036;2023-04-07T11:37:56;4.90;;;3.57;;
37425;SDS011;23285;50.180;7.036;2023-04-07T11:40:43;4.50;;;3.83;;
37425;SDS011;23285;50.180;7.036;2023-04-07T11:43:30;7.57;;;3.90;;
37425;SDS011;23285;50.180;7.036;2023-04-07T11:46:16;6.43;;;3.47;;
37425;SDS011;23285;50.180;7.036;2023-04-07T11:49:11;7.93;;;3.87;;
37425;SDS011;23285;50.180;7.036;2023-04-07T11:52:00;4.27;;;3.27;;
37425;SDS011;23285;50.180;7.036;2023-04-07T11:54:46;5.80;;;3.97;;
37425;SDS011;23285;50.180;7.036;2023-04-07T11:57:33;6.07;;;4.27;;
37425;SDS011;23285;50.180;7.036;2023-04-07T12:00:21;5.70;;;4.27;;
37425;SDS011;23285;50.180;7.036;2023-04-07T12:03:10;5.97;;;4.37;;
37425;SDS011;23285;50.180;7.036;2023-04-07T12:05:59;5.53;;;4.40;;
37425;SDS011;23285;50.180;7.036;2023-04-07T12:08:45;7.03;;;3.87;;
37425;SDS011;23285;50.180;7.036;2023-04-07T12:11:32;4.57;;;3.20;;
37425;SDS011;23285;50.180;7.036;2023-04-07T12:14:19;6.50;;;3.50;;
37425;SDS011;23285;50.180;7.036;2023-04-07T12:17:05;4.80;;;3.57;;
37425;SDS011;23285;50.180;7.036;2023-04-07T12:19:52;6.17;;;4.20;;
37425;SDS011;23285;50.180;7.036;2023-04-07T12:22:40;7.43;;;3.10;;
37425;SDS011;23285;50.180;7.036;2023-04-07T12:25:27;5.37;;;2.93;;
37425;SDS011;23285;50.180;7.036;2023-04-07T12:28:14;3.30;;;2.60;;
37425;SDS011;23285;50.180;7.036;2023-04-07T12:31:00;4.17;;;3.10;;
37425;SDS011;23285;50.180;7.036;2023-04-07T12:33:46;4.50;;;3.20;;
37425;SDS011;23285;50.180;7.036;2023-04-07T12:36:33;7.13;;;6.43;;
37425;SDS011;23285;50.180;7.036;2023-04-07T12:39:22;4.93;;;3.30;;
37425;SDS011;23285;50.180;7.036;2023-04-07T12:42:09;5.30;;;3.53;;
37425;SDS011;23285;50.180;7.036;2023-04-07T12:44:56;3.10;;;2.83;;
37425;SDS011;23285;50.180;7.036;2023-04-07T12:47:43;4.17;;;3.03;;
37425;SDS011;23285;50.180;7.036;2023-04-07T12:50:30;4.90;;;3.07;;
37425;SDS011;23285;50.180;7.036;2023-04-07T12:53:16;4.47;;;2.47;;
37425;SDS011;23285;50.180;7.036;2023-04-07T12:56:04;4.77;;;3.10;;
37425;SDS011;23285;50.180;7.036;2023-04-07T12:58:51;3.50;;;2.57;;
37425;SDS011;23285;50.180;7.036;2023-04-07T13:01:38;4.30;;;3.43;;
37425;SDS011;23285;50.180;7.036;2023-04-07T13:04:24;3.73;;;2.90;;
37425;SDS011;23285;50.180;7.036;2023-04-07T13:07:13;3.20;;;2.60;;
37425;SDS011;23285;50.180;7.036;2023-04-07T13:10:00;4.50;;;3.00;;
37425;SDS011;23285;50.180;7.036;2023-04-07T13:12:49;4.40;;;2.80;;
37425;SDS011;23285;50.180;7.036;2023-04-07T13:15:35;4.37;;;2.40;;
37425;SDS011;23285;50.180;7.036;2023-04-07T13:18:21;3.93;;;2.60;;
37425;SDS011;23285;50.180;7.036;2023-04-07T13:21:08;5.90;;;3.10;;
37425;SDS011;23285;50.180;7.036;2023-04-07T13:23:55;4.43;;;3.40;;
37425;SDS011;23285;50.180;7.036;2023-04-07T13:26:41;5.43;;;4.20;;
37425;SDS011;23285;50.180;7.036;2023-04-07T13:29:28;3.80;;;3.03;;
37425;SDS011;23285;50.180;7.036;2023-04-07T13:32:15;4.43;;;3.10;;
37425;SDS011;23285;50.180;7.036;2023-04-07T13:35:02;5.87;;;4.00;;
37425;SDS011;23285;50.180;7.036;2023-04-07T13:37:49;4.90;;;3.40;;
37425;SDS011;23285;50.180;7.036;2023-04-07T13:40:36;5.40;;;3.77;;
37425;SDS011;23285;50.180;7.036;2023-04-07T13:43:22;5.53;;;3.53;;
37425;SDS011;23285;50.180;7.036;2023-04-07T13:46:12;4.73;;;3.20;;
37425;SDS011;23285;50.180;7.036;2023-04-07T13:49:01;5.50;;;2.90;;
37425;SDS011;23285;50.180;7.036;2023-04-07T13:51:47;3.40;;;2.83;;
37425;SDS011;23285;50.180;7.036;2023-04-07T13:54:34;5.13;;;2.80;;
37425;SDS011;23285;50.180;7.036;2023-04-07T13:57:21;4.53;;;3.23;;
37425;SDS011;23285;50.180;7.036;2023-04-07T14:00:08;2.50;;;2.13;;
37425;SDS011;23285;50.180;7.036;2023-04-07T14:02:56;2.80;;;2.00;;
37425;SDS011;23285;50.180;7.036;2023-04-07T14:05:42;3.67;;;2.53;;
37425;SDS011;23285;50.180;7.036;2023-04-07T14:08:29;3.03;;;2.17;;
37425;SDS011;23285;50.180;7.036;2023-04-07T14:11:15;2.50;;;2.30;;
37425;SDS011;23285;50.180;7.036;2023-04-07T14:14:02;3.33;;;2.13;;
37425;SDS011;23285;50.180;7.036;2023-04-07T14:16:49;4.00;;;2.57;;
37425;SDS011;23285;50.180;7.036;2023-04-07T14:19:37;2.47;;;2.17;;
37425;SDS011;23285;50.180;7.036;2023-04-07T14:22:23;4.80;;;2.63;;
37425;SDS011;23285;50.180;7.036;2023-04-07T14:25:10;2.83;;;2.40;;
37425;SDS011;23285;50.180;7.036;2023-04-07T14:27:56;2.77;;;2.40;;
37425;SDS011;23285;50.180;7.036;2023-04-07T14:30:43;4.77;;;2.40;;
37425;SDS011;23285;50.180;7.036;2023-04-07T14:33:30;3.07;;;2.53;;
37425;SDS011;23285;50.180;7.036;2023-04-07T14:36:18;3.03;;;2.40;;
37425;SDS011;23285;50.180;7.036;2023-04-07T14:39:04;3.73;;;2.73;;
37425;SDS011;23285;50.180;7.036;2023-04-07T14:41:51;2.90;;;2.40;;
37425;SDS011;23285;50.180;7.036;2023-04-07T14:44:38;4.23;;;2.67;;
37425;SDS011;23285;50.180;7.036;2023-04-07T14:47:24;5.03;;;3.23;;
37425;SDS011;23285;50.180;7.036;2023-04-07T14:50:11;4.30;;;3.67;;
37425;SDS011;23285;50.180;7.036;2023-04-07T14:52:59;3.10;;;2.87;;
37425;SDS011;23285;50.180;7.036;2023-04-07T14:55:45;3.37;;;3.07;;
37425;SDS011;23285;50.180;7.036;2023-04-07T14:58:32;3.73;;;2.80;;
37425;SDS011;23285;50.180;7.036;2023-04-07T15:01:21;5.47;;;3.33;;
37425;SDS011;23285;50.180;7.036;2023-04-07T15:04:07;3.50;;;3.20;;
37425;SDS011;23285;50.180;7.036;2023-04-07T15:06:53;4.57;;;3.67;;
37425;SDS011;23285;50.180;7.036;2023-04-07T15:09:40;6.40;;;3.17;;
37425;SDS011;23285;50.180;7.036;2023-04-07T15:12:28;3.70;;;3.40;;
37425;SDS011;23285;50.180;7.036;2023-04-07T15:15:15;4.30;;;3.20;;
37425;SDS011;23285;50.180;7.036;2023-04-07T15:18:01;8.37;;;6.00;;
37425;SDS011;23285;50.180;7.036;2023-04-07T15:20:48;5.23;;;3.63;;
37425;SDS011;23285;50.180;7.036;2023-04-07T15:23:34;6.27;;;4.30;;
37425;SDS011;23285;50.180;7.036;2023-04-07T15:26:23;6.57;;;3.80;;
37425;SDS011;23285;50.180;7.036;2023-04-07T15:29:10;4.60;;;3.63;;
37425;SDS011;23285;50.180;7.036;2023-04-07T15:31:56;4.20;;;3.10;;
37425;SDS011;23285;50.180;7.036;2023-04-07T15:34:42;5.37;;;3.07;;
37425;SDS011;23285;50.180;7.036;2023-04-07T15:37:31;5.17;;;3.50;;
37425;SDS011;23285;50.180;7.036;2023-04-07T15:40:17;3.47;;;3.17;;
37425;SDS011;23285;50.180;7.036;2023-04-07T15:43:05;5.53;;;3.40;;
37425;SDS011;23285;50.180;7.036;2023-04-07T15:45:54;8.03;;;3.50;;
37425;SDS011;23285;50.180;7.036;2023-04-07T15:48:40;4.57;;;3.07;;
37425;SDS011;23285;50.180;7.036;2023-04-07T15:51:27;3.67;;;3.33;;
37425;SDS011;23285;50.180;7.036;2023-04-07T15:54:14;4.50;;;3.77;;
37425;SDS011;23285;50.180;7.036;2023-04-07T15:57:00;5.20;;;3.93;;
37425;SDS011;23285;50.180;7.036;2023-04-07T15:59:48;6.03;;;3.60;;
37425;SDS011;23285;50.180;7.036;2023-04-07T16:02:35;5.67;;;4.10;;
37425;SDS011;23285;50.180;7.036;2023-04-07T16:05:22;6.30;;;3.93;;
37425;SDS011;23285;50.180;7.036;2023-04-07T16:08:08;6.70;;;3.40;;
37425;SDS011;23285;50.180;7.036;2023-04-07T16:10:55;5.50;;;3.60;;
37425;SDS011;23285;50.180;7.036;2023-04-07T16:13:41;3.70;;;3.37;;
37425;SDS011;23285;50.180;7.036;2023-04-07T16:16:29;3.53;;;3.23;;
37425;SDS011;23285;50.180;7.036;2023-04-07T16:19:19;6.40;;;3.93;;
37425;SDS011;23285;50.180;7.036;2023-04-07T16:22:05;5.60;;;3.90;;
37425;SDS011;23285;50.180;7.036;2023-04-07T16:24:52;3.80;;;3.20;;
37425;SDS011;23285;50.180;7.036;2023-04-07T16:27:38;4.47;;;4.03;;
37425;SDS011;23285;50.180;7.036;2023-04-07T16:30:24;5.73;;;4.37;;
37425;SDS011;23285;50.180;7.036;2023-04-07T16:33:12;5.43;;;4.90;;
37425;SDS011;23285;50.180;7.036;2023-04-07T16:35:58;5.83;;;5.10;;
37425;SDS011;23285;50.180;7.036;2023-04-07T16:38:44;8.90;;;5.30;;
37425;SDS011;23285;50.180;7.036;2023-04-07T16:41:32;6.33;;;5.73;;
37425;SDS011;23285;50.180;7.036;2023-04-07T16:44:18;7.17;;;6.07;;
37425;SDS011;23285;50.180;7.036;2023-04-07T16:47:06;8.00;;;5.80;;
37425;SDS011;23285;50.180;7.036;2023-04-07T16:49:53;6.60;;;5.70;;
37425;SDS011;23285;50.180;7.036;2023-04-07T16:52:39;8.80;;;5.83;;
37425;SDS011;23285;50.180;7.036;2023-04-07T16:55:26;7.87;;;5.70;;